Time;durP1;ratioP1;P1;durP2;ratioP2;P2;SDS_P1;SDS_P2;PMS_P1;PMS_P2;Temp;Humidity;BMP_temperature;BMP_pressure;BME280_temperature;BME280_humidity;BME280_pressure;Samples;Min_cycle;Max_cycle;Signal;HPM_P1;HPM_P2
2023/11/30 00:00:28;;;;;;;11.90;9.80;;;;;;;7.91;46.46;101419.66;107108;1254;25392;-68
2023/11/30 00:02:55;;;;;;;11.20;9.30;;;;;;;7.89;46.33;101422.76;107071;1257;25453;-68
2023/11/30 00:05:23;;;;;;;12.10;9.10;;;;;;;7.88;46.42;101414.30;106308;1255;1003472;-68
2023/11/30 00:07:51;;;;;;;13.30;10.70;;;;;;;7.88;46.45;101411.34;107182;1251;25379;-68
2023/11/30 00:10:18;;;;;;;11.30;9.00;;;;;;;7.87;46.56;101411.70;107219;1253;25236;-68
2023/11/30 00:12:45;;;;;;;13.00;9.90;;;;;;;7.88;46.40;101416.20;106800;1258;25442;-69
2023/11/30 00:15:12;;;;;;;11.90;9.20;;;;;;;7.86;46.53;101423.80;106933;1259;25332;-69
2023/11/30 00:17:39;;;;;;;12.10;9.80;;;;;;;7.83;46.51;101430.02;106323;1256;1003129;-68
2023/11/30 00:20:07;;;;;;;13.10;9.60;;;;;;;7.81;46.63;101428.64;107165;1254;25462;-68
2023/11/30 00:22:34;;;;;;;12.10;8.80;;;;;;;7.78;46.56;101437.45;107325;1251;25382;-69
2023/11/30 00:25:01;;;;;;;11.90;9.80;;;;;;;7.76;46.67;101443.66;107203;1254;25380;-69
2023/11/30 00:27:28;;;;;;;11.70;9.30;;;;;;;7.75;46.52;101446.59;106366;1250;1003289;-68
2023/11/30 00:29:55;;;;;;;12.30;9.80;;;;;;;7.72;46.20;101455.58;107163;1253;25493;-68
2023/11/30 00:32:23;;;;;;;11.10;9.10;;;;;;;7.69;46.29;101458.68;106394;1264;1003333;-68
2023/11/30 00:34:51;;;;;;;13.00;10.00;;;;;;;7.69;46.21;101462.48;107120;1257;22560;-68
2023/11/30 00:37:18;;;;;;;13.30;10.00;;;;;;;7.68;46.21;101457.64;107300;1253;25350;-68
2023/11/30 00:39:45;;;;;;;11.30;9.30;;;;;;;7.65;45.90;101455.57;107092;1251;25389;-68
2023/11/30 00:42:12;;;;;;;11.30;9.20;;;;;;;7.64;46.15;101461.61;107101;1254;25359;-69
2023/11/30 00:44:39;;;;;;;11.20;9.20;;;;;;;7.65;46.37;101472.49;107065;1256;25465;-68
2023/11/30 00:47:06;;;;;;;13.60;9.50;;;;;;;7.67;46.41;101470.08;106378;1256;1003651;-68
2023/11/30 00:49:33;;;;;;;14.00;9.50;;;;;;;7.67;46.41;101467.65;106979;1260;25337;-68
2023/11/30 00:52:00;;;;;;;13.20;9.70;;;;;;;7.67;46.59;101477.50;107093;1256;25341;-68
2023/11/30 00:54:27;;;;;;;12.70;10.10;;;;;;;7.66;46.58;101481.98;106370;1254;1003699;-68
2023/11/30 00:56:54;;;;;;;15.50;10.50;;;;;;;7.66;46.51;101475.77;107100;1254;25396;-68
2023/11/30 00:59:21;;;;;;;14.70;10.60;;;;;;;7.65;46.37;101476.11;106750;1260;23261;-68
2023/11/30 01:01:48;;;;;;;12.10;9.60;;;;;;;7.63;46.14;101481.48;106913;1257;23862;-69
2023/11/30 01:04:15;;;;;;;13.00;10.20;;;;;;;7.61;46.44;101482.50;107101;1257;25408;-68
2023/11/30 01:06:42;;;;;;;12.20;10.00;;;;;;;7.60;46.53;101481.81;106904;1256;25341;-68
2023/11/30 01:09:09;;;;;;;13.70;10.50;;;;;;;7.58;46.33;101479.55;106379;1253;1003752;-68
2023/11/30 01:11:42;;;;;;;12.20;9.30;;;;;;;7.55;46.68;101479.73;106988;1263;25369;-68
2023/11/30 01:14:09;;;;;;;12.10;10.30;;;;;;;7.56;46.84;101467.80;106891;1266;24376;-68
2023/11/30 01:16:36;;;;;;;13.50;10.10;;;;;;;7.58;46.95;101471.95;107188;1254;25459;-69
2023/11/30 01:19:03;;;;;;;13.10;9.40;;;;;;;7.58;46.53;101471.27;107170;1250;25369;-68
2023/11/30 01:21:31;;;;;;;14.40;10.40;;;;;;;7.54;46.66;101474.38;107012;1253;25344;-68
2023/11/30 01:23:58;;;;;;;13.20;9.60;;;;;;;7.54;46.95;101481.80;107172;1250;25344;-68
2023/11/30 01:26:25;;;;;;;12.00;9.30;;;;;;;7.56;46.90;101488.02;107189;1250;25414;-68
2023/11/30 01:28:52;;;;;;;15.20;9.90;;;;;;;7.54;46.82;101494.05;107102;1266;25344;-68
2023/11/30 01:31:19;;;;;;;13.90;9.50;;;;;;;7.51;46.99;101499.21;107137;1256;25350;-68
2023/11/30 01:33:46;;;;;;;13.80;9.80;;;;;;;7.50;46.76;101498.86;106950;1269;25350;-68
2023/11/30 01:36:13;;;;;;;13.20;10.10;;;;;;;7.50;46.91;101506.30;107062;1263;25341;-68
2023/11/30 01:38:40;;;;;;;14.80;10.70;;;;;;;7.48;46.92;101511.64;107262;1251;25481;-68
2023/11/30 01:41:07;;;;;;;12.40;9.80;;;;;;;7.46;47.20;101522.68;107195;1254;25343;-68
2023/11/30 01:43:34;;;;;;;12.00;9.20;;;;;;;7.44;47.01;101522.84;106981;1253;25394;-68
2023/11/30 01:46:01;;;;;;;13.50;9.80;;;;;;;7.43;46.94;101524.22;106836;1259;25382;-68
2023/11/30 01:48:31;;;;;;;11.70;9.30;;;;;;;7.43;47.18;101524.91;106937;1257;25334;-68
2023/11/30 01:50:58;;;;;;;12.40;9.20;;;;;;;7.44;46.92;101525.08;106119;1257;1002951;-68
2023/11/30 01:53:26;;;;;;;11.90;9.20;;;;;;;7.43;46.78;101531.65;106769;1257;22639;-68
2023/11/30 01:55:53;;;;;;;11.20;9.00;;;;;;;7.42;46.83;101535.78;106851;1257;25394;-68
2023/11/30 01:58:20;;;;;;;12.50;9.40;;;;;;;7.43;46.73;101544.77;106055;1257;1003023;-68
2023/11/30 02:00:47;;;;;;;13.90;10.90;;;;;;;7.44;47.09;101546.51;106864;1259;25356;-68
2023/11/30 02:03:15;;;;;;;14.60;9.70;;;;;;;7.43;46.97;101538.73;106992;1256;25414;-68
2023/11/30 02:05:43;;;;;;;10.90;8.70;;;;;;;7.42;47.34;101540.62;106801;1260;22526;-68
2023/11/30 02:08:10;;;;;;;14.30;9.40;;;;;;;7.42;47.32;101548.73;106177;1253;1002883;-68
2023/11/30 02:10:38;;;;;;;12.90;9.40;;;;;;;7.43;47.45;101549.42;107057;1256;25487;-68
2023/11/30 02:13:05;;;;;;;13.50;10.10;;;;;;;7.43;47.23;101555.99;106910;1270;25740;-68
2023/11/30 02:15:32;;;;;;;12.90;9.20;;;;;;;7.43;47.49;101556.85;106864;1272;25369;-68
2023/11/30 02:17:59;;;;;;;13.10;9.90;;;;;;;7.47;47.28;101547.55;106532;1256;1003044;-68
2023/11/30 02:20:26;;;;;;;12.80;9.50;;;;;;;7.43;46.59;101550.29;107211;1254;25341;-68
2023/11/30 02:22:53;;;;;;;12.30;9.60;;;;;;;7.40;47.01;101558.56;106396;1254;1003112;-68
2023/11/30 02:25:21;;;;;;;12.70;9.30;;;;;;;7.36;46.62;101554.74;107035;1253;24244;-68
2023/11/30 02:27:48;;;;;;;12.70;9.90;;;;;;;7.31;46.87;101559.21;107070;1253;25724;-69
2023/11/30 02:30:15;;;;;;;12.60;10.00;;;;;;;7.29;47.06;101560.77;107125;1254;24208;-68
2023/11/30 02:32:42;;;;;;;13.70;10.00;;;;;;;7.27;47.09;101565.08;107159;1257;25351;-68
2023/11/30 02:35:09;;;;;;;12.60;10.00;;;;;;;7.26;46.83;101576.28;107183;1250;22535;-68
2023/11/30 02:37:36;;;;;;;10.80;9.20;;;;;;;7.23;46.75;101584.38;107155;1254;25341;-67
2023/11/30 02:40:04;;;;;;;12.10;9.40;;;;;;;7.19;46.16;101581.09;106222;1256;1003765;-68
2023/11/30 02:42:31;;;;;;;13.40;9.50;;;;;;;7.13;46.03;101573.11;106761;1259;25275;-68
2023/11/30 02:44:59;;;;;;;11.90;9.40;;;;;;;7.08;46.04;101577.55;106985;1256;25481;-68
2023/11/30 02:47:25;;;;;;;12.40;9.60;;;;;;;7.04;45.76;101588.92;107069;1252;24224;-68
2023/11/30 02:49:53;;;;;;;14.50;9.50;;;;;;;7.01;46.12;101590.81;106356;1253;1003486;-69
2023/11/30 02:52:20;;;;;;;12.50;9.50;;;;;;;7.01;46.08;101587.17;107073;1250;25397;-68
2023/11/30 02:54:47;;;;;;;11.50;9.80;;;;;;;7.00;46.31;101589.09;107143;1257;25340;-68
2023/11/30 02:57:14;;;;;;;14.20;9.50;;;;;;;7.00;46.19;101593.73;106402;1253;1003332;-68
2023/11/30 02:59:42;;;;;;;14.00;10.20;;;;;;;6.99;46.18;101587.68;107156;1263;25340;-68
2023/11/30 03:02:11;;;;;;;14.20;9.30;;;;;;;6.97;46.27;101592.16;106448;1254;1003313;-68
2023/11/30 03:04:38;;;;;;;11.80;9.30;;;;;;;6.96;46.20;101596.98;106188;1260;1002951;-69
2023/11/30 03:07:05;;;;;;;13.70;9.80;;;;;;;6.97;46.24;101602.17;106364;1254;1003031;-68
2023/11/30 03:09:33;;;;;;;12.60;9.60;;;;;;;6.98;46.49;101605.28;107193;1254;25415;-68
2023/11/30 03:12:01;;;;;;;13.10;9.70;;;;;;;6.99;46.28;101611.84;106903;1273;25362;-68
2023/11/30 03:14:28;;;;;;;13.50;9.60;;;;;;;6.98;46.35;101618.73;107198;1254;25344;-68
2023/11/30 03:16:56;;;;;;;14.00;9.40;;;;;;;6.98;46.62;101627.02;106436;1254;1002851;-68
2023/11/30 03:19:24;;;;;;;14.10;10.00;;;;;;;6.97;46.61;101630.12;106741;1274;24394;-68
2023/11/30 03:21:51;;;;;;;13.20;9.40;;;;;;;6.95;46.60;101631.31;107236;1255;25363;-68
2023/11/30 03:24:19;;;;;;;12.60;9.70;;;;;;;6.93;46.75;101630.09;107096;1253;22550;-68
2023/11/30 03:26:46;;;;;;;12.60;9.60;;;;;;;6.90;46.58;101629.38;107014;1256;22527;-68
2023/11/30 03:29:13;;;;;;;12.00;9.30;;;;;;;6.89;46.67;101625.58;107157;1255;25344;-68
2023/11/30 03:31:41;;;;;;;13.30;10.60;;;;;;;6.87;46.44;101627.98;106365;1253;1002863;-68
2023/11/30 03:34:08;;;;;;;12.30;8.40;;;;;;;6.83;46.44;101632.77;107162;1254;23241;-68
2023/11/30 03:36:35;;;;;;;13.90;9.60;;;;;;;6.82;46.50;101634.65;107114;1253;25420;-68
2023/11/30 03:39:03;;;;;;;14.00;9.50;;;;;;;6.81;46.44;101634.14;106221;1259;1002863;-68
2023/11/30 03:41:31;;;;;;;12.80;9.20;;;;;;;6.78;46.21;101637.56;107177;1253;25420;-68
2023/11/30 03:43:58;;;;;;;13.30;9.40;;;;;;;6.76;46.44;101645.83;107145;1257;25341;-68
2023/11/30 03:46:26;;;;;;;12.00;9.10;;;;;;;6.77;46.55;101654.27;106389;1256;1003055;-68
2023/11/30 03:48:54;;;;;;;13.00;8.70;;;;;;;6.78;46.71;101655.33;106777;1253;1003055;-68
2023/11/30 03:51:21;;;;;;;13.00;9.20;;;;;;;6.82;46.67;101654.31;107189;1254;25414;-68
2023/11/30 03:53:48;;;;;;;13.10;9.40;;;;;;;6.84;46.68;101659.17;107073;1263;25372;-68
2023/11/30 03:56:15;;;;;;;11.50;8.70;;;;;;;6.84;46.37;101656.41;107171;1256;25395;-68
2023/11/30 03:58:42;;;;;;;11.60;9.10;;;;;;;6.82;46.26;101662.60;107121;1254;25369;-68
2023/11/30 04:01:09;;;;;;;11.40;8.40;;;;;;;6.81;46.08;101663.80;106610;1253;1004594;-68
2023/11/30 04:03:36;;;;;;;11.80;8.70;;;;;;;6.79;45.99;101666.38;107136;1254;24047;-68
2023/11/30 04:06:03;;;;;;;14.50;9.70;;;;;;;6.78;46.14;101668.59;106437;1257;1003753;-68
2023/11/30 04:08:30;;;;;;;12.60;9.30;;;;;;;6.84;46.04;101674.33;107156;1254;25436;-68
2023/11/30 04:10:57;;;;;;;12.10;8.80;;;;;;;6.87;45.75;101675.23;106425;1257;1003022;-68
2023/11/30 04:13:24;;;;;;;11.70;9.00;;;;;;;6.86;45.59;101680.22;107220;1253;25356;-68
2023/11/30 04:15:51;;;;;;;11.80;9.00;;;;;;;6.84;45.60;101679.52;107283;1254;25347;-67
2023/11/30 04:18:18;;;;;;;13.00;8.40;;;;;;;6.83;45.64;101680.20;107040;1254;25331;-67
2023/11/30 04:20:46;;;;;;;10.50;8.30;;;;;;;6.82;45.18;101681.23;107056;1258;25418;-67
2023/11/30 04:23:13;;;;;;;11.80;8.40;;;;;;;6.81;44.98;101685.00;106365;1254;1002877;-67
2023/11/30 04:25:40;;;;;;;9.70;7.70;;;;;;;6.80;45.02;101688.11;107175;1254;25368;-67
2023/11/30 04:28:08;;;;;;;13.10;8.20;;;;;;;6.81;44.85;101689.33;106133;1258;1002973;-67
2023/11/30 04:30:35;;;;;;;12.40;9.20;;;;;;;6.80;44.62;101689.31;106458;1250;1003161;-67
2023/11/30 04:33:02;;;;;;;12.40;8.40;;;;;;;6.79;44.87;101693.62;107151;1254;23301;-68
2023/11/30 04:35:30;;;;;;;11.90;8.90;;;;;;;6.77;45.01;101699.13;106356;1256;1002916;-67
2023/11/30 04:37:57;;;;;;;14.00;9.60;;;;;;;6.75;45.10;101705.48;107178;1254;25369;-67
2023/11/30 04:40:24;;;;;;;12.90;9.20;;;;;;;6.79;45.35;101709.83;107117;1260;22656;-67
2023/11/30 04:42:51;;;;;;;12.10;9.70;;;;;;;6.74;45.25;101711.33;107033;1269;25491;-68
2023/11/30 04:45:18;;;;;;;13.20;9.50;;;;;;;6.71;45.66;101712.52;107188;1254;25356;-67
2023/11/30 04:47:45;;;;;;;14.20;9.60;;;;;;;6.70;45.67;101714.58;107168;1254;25421;-67
2023/11/30 04:50:13;;;;;;;12.40;9.60;;;;;;;6.72;45.64;101714.60;107060;1257;25356;-67
2023/11/30 04:52:40;;;;;;;13.00;9.00;;;;;;;6.72;45.76;101711.84;107073;1256;25487;-68
2023/11/30 04:55:08;;;;;;;12.50;9.00;;;;;;;6.72;45.81;101717.52;106335;1252;1003375;-68
2023/11/30 04:57:35;;;;;;;13.00;9.60;;;;;;;6.72;45.98;101719.08;106950;1259;25487;-67
2023/11/30 05:00:05;;;;;;;11.20;8.40;;;;;;;6.73;46.24;101719.08;107124;1256;22510;-68
2023/11/30 05:02:36;;;;;;;12.10;8.90;;;;;;;6.74;46.06;101722.38;106161;1256;1002876;-67
2023/11/30 05:05:05;;;;;;;11.90;8.80;;;;;;;6.75;46.12;101717.05;107318;1258;25415;-68
2023/11/30 05:07:32;;;;;;;11.90;8.90;;;;;;;6.78;45.96;101717.23;107056;1256;24031;-68
2023/11/30 05:10:00;;;;;;;11.40;8.40;;;;;;;6.82;46.21;101711.06;106432;1254;1003595;-69
2023/11/30 05:12:27;;;;;;;13.90;8.60;;;;;;;6.87;46.04;101715.77;106904;1273;25421;-68
2023/11/30 05:14:54;;;;;;;11.30;8.70;;;;;;;6.88;45.80;101718.54;106922;1267;25340;-68
2023/11/30 05:17:21;;;;;;;11.20;7.60;;;;;;;6.89;45.55;101729.23;106532;1254;1003435;-67
2023/11/30 05:19:48;;;;;;;11.80;7.50;;;;;;;6.90;45.40;101735.27;106842;1267;25418;-68
2023/11/30 05:22:14;;;;;;;12.50;8.50;;;;;;;6.89;45.38;101738.71;107112;1256;25341;-69
2023/11/30 05:24:41;;;;;;;14.40;9.00;;;;;;;6.91;45.40;101735.29;107103;1256;25425;-68
2023/11/30 05:27:08;;;;;;;10.90;8.30;;;;;;;6.94;45.23;101736.00;107077;1253;25344;-67
2023/11/30 05:29:36;;;;;;;11.90;8.60;;;;;;;6.92;44.99;101728.91;107054;1259;25331;-68
2023/11/30 05:32:03;;;;;;;12.50;8.80;;;;;;;6.90;45.16;101728.72;107131;1256;24536;-68
2023/11/30 05:34:30;;;;;;;11.50;8.10;;;;;;;6.91;45.09;101730.79;106464;1254;1002995;-68
2023/11/30 05:36:57;;;;;;;13.10;7.80;;;;;;;6.91;45.23;101729.77;107100;1254;25398;-68
2023/11/30 05:39:24;;;;;;;11.50;8.30;;;;;;;6.91;45.07;101731.31;107188;1256;25359;-68
2023/11/30 05:41:51;;;;;;;9.50;7.10;;;;;;;6.88;45.01;101734.91;107246;1254;24191;-68
2023/11/30 05:44:19;;;;;;;11.00;7.90;;;;;;;6.73;45.28;101740.98;106290;1251;1003518;-67
2023/11/30 05:46:46;;;;;;;10.30;7.80;;;;;;;6.71;45.41;101746.13;107180;1254;24330;-67
2023/11/30 05:49:13;;;;;;;8.80;6.80;;;;;;;6.73;45.43;101753.92;106389;1250;1003760;-67
2023/11/30 05:51:41;;;;;;;9.40;6.30;;;;;;;6.74;44.17;101753.40;107207;1254;25361;-68
2023/11/30 05:54:08;;;;;;;9.70;6.60;;;;;;;6.75;44.00;101762.39;106993;1266;25337;-68
2023/11/30 05:56:36;;;;;;;10.30;6.60;;;;;;;6.77;43.92;101764.48;106336;1256;1003365;-68
2023/11/30 05:59:03;;;;;;;7.90;6.70;;;;;;;6.78;43.88;101768.27;106121;1270;1003366;-68
2023/11/30 06:01:30;;;;;;;7.50;6.10;;;;;;;6.83;44.20;101772.12;107162;1257;25455;-68
2023/11/30 06:03:57;;;;;;;9.10;6.70;;;;;;;6.89;43.94;101778.55;107154;1254;25340;-68
2023/11/30 06:06:24;;;;;;;9.50;6.60;;;;;;;6.94;43.64;101783.09;107011;1254;292809;-68
2023/11/30 06:08:51;;;;;;;11.80;7.70;;;;;;;7.00;43.84;101790.21;107129;1254;24192;-68
2023/11/30 06:11:18;;;;;;;9.00;6.50;;;;;;;7.06;44.02;101795.11;106410;1257;1003783;-68
2023/11/30 06:13:45;;;;;;;8.40;6.30;;;;;;;7.12;43.71;101797.40;107014;1256;25443;-68
2023/11/30 06:16:12;;;;;;;8.50;6.50;;;;;;;7.16;43.56;101794.52;107110;1256;25488;-68
2023/11/30 06:18:40;;;;;;;9.00;6.70;;;;;;;7.20;43.53;101795.75;107021;1273;25321;-68
2023/11/30 06:21:09;;;;;;;8.30;6.50;;;;;;;7.21;43.71;101802.15;107191;1253;22517;-68
2023/11/30 06:23:37;;;;;;;8.50;6.30;;;;;;;7.23;43.77;101808.54;106440;1254;1003480;-68
2023/11/30 06:26:06;;;;;;;8.20;6.20;;;;;;;7.24;43.84;101808.38;106486;1254;1003046;-68
2023/11/30 06:28:33;;;;;;;8.80;6.50;;;;;;;7.25;43.45;101814.44;107117;1256;22632;-68
2023/11/30 06:31:00;;;;;;;8.70;6.80;;;;;;;7.25;43.28;101820.65;107208;1263;25340;-68
2023/11/30 06:33:27;;;;;;;8.90;6.60;;;;;;;7.25;43.45;101825.48;107234;1257;25395;-68
2023/11/30 06:35:55;;;;;;;10.20;6.30;;;;;;;7.25;43.53;101823.05;107039;1253;25413;-69
2023/11/30 06:38:21;;;;;;;8.10;6.30;;;;;;;7.23;43.27;101823.39;107224;1251;25477;-69
2023/11/30 06:40:49;;;;;;;9.90;6.60;;;;;;;7.23;43.43;101827.36;107078;1250;25386;-68
2023/11/30 06:43:16;;;;;;;7.60;6.10;;;;;;;7.23;43.39;101830.46;106993;1270;25321;-68
2023/11/30 06:45:43;;;;;;;7.70;5.70;;;;;;;7.23;43.30;101832.36;106495;1254;1003099;-69
2023/11/30 06:48:10;;;;;;;9.70;6.40;;;;;;;7.23;43.00;101828.05;107154;1258;25369;-68
2023/11/30 06:50:37;;;;;;;8.20;6.20;;;;;;;7.23;43.19;101829.42;107195;1254;25456;-68
2023/11/30 06:53:04;;;;;;;7.40;6.00;;;;;;;7.24;43.18;101829.78;107083;1257;25343;-68
2023/11/30 06:55:31;;;;;;;9.10;5.80;;;;;;;7.24;43.06;101829.60;106563;1256;1003648;-68
2023/11/30 06:57:58;;;;;;;8.30;5.80;;;;;;;7.26;43.04;101831.02;107133;1255;25487;-68
2023/11/30 07:00:26;;;;;;;7.60;5.80;;;;;;;7.27;43.11;101832.41;107057;1256;25396;-68
2023/11/30 07:02:54;;;;;;;7.60;5.60;;;;;;;7.29;42.77;101835.17;106176;1269;1003617;-68
2023/11/30 07:05:21;;;;;;;6.70;5.50;;;;;;;7.30;42.75;101841.91;107213;1254;25362;-68
2023/11/30 07:07:48;;;;;;;7.60;5.60;;;;;;;7.34;42.88;101851.79;107233;1256;25366;-68
2023/11/30 07:10:15;;;;;;;7.50;5.90;;;;;;;7.38;42.89;101853.55;107111;1257;25456;-68
2023/11/30 07:12:42;;;;;;;8.70;6.10;;;;;;;7.41;42.82;101856.52;106917;1256;25366;-69
2023/11/30 07:15:09;;;;;;;6.70;5.30;;;;;;;7.45;42.79;101860.85;106419;1253;1003817;-68
2023/11/30 07:17:37;;;;;;;8.20;6.00;;;;;;;7.50;42.77;101864.69;106992;1259;25414;-68
2023/11/30 07:20:06;;;;;;;6.60;5.30;;;;;;;7.53;42.52;101865.59;107020;1267;25417;-68
2023/11/30 07:22:34;;;;;;;6.30;4.60;;;;;;;7.57;42.25;101868.23;107291;1257;24219;-68
2023/11/30 07:25:01;;;;;;;8.80;5.20;;;;;;;7.60;41.55;101865.30;107227;1254;23896;-69
2023/11/30 07:27:28;;;;;;;8.10;4.90;;;;;;;7.63;41.53;101868.95;106336;1257;1002901;-68
2023/11/30 07:29:55;;;;;;;5.70;4.20;;;;;;;7.63;40.95;101871.73;107192;1254;25331;-68
2023/11/30 07:32:23;;;;;;;7.00;5.00;;;;;;;7.65;41.18;101876.05;107108;1258;24321;-68
2023/11/30 07:34:49;;;;;;;5.80;4.20;;;;;;;7.67;41.52;101879.00;107158;1253;25249;-68
2023/11/30 07:37:17;;;;;;;6.00;4.20;;;;;;;7.72;41.52;101881.64;106107;1270;1003329;-68
2023/11/30 07:39:44;;;;;;;6.80;5.00;;;;;;;7.75;41.05;101884.60;107153;1254;25341;-68
2023/11/30 07:42:11;;;;;;;8.20;4.90;;;;;;;7.77;41.16;101887.02;107095;1267;25343;-68
2023/11/30 07:44:40;;;;;;;6.70;5.10;;;;;;;7.79;41.52;101892.23;107177;1261;25952;-68
2023/11/30 07:47:07;;;;;;;7.50;5.50;;;;;;;7.79;41.71;101896.73;106452;1253;1015585;-68
2023/11/30 07:49:34;;;;;;;6.70;5.30;;;;;;;7.80;41.67;101901.21;107060;1257;25400;-69
2023/11/30 07:52:01;;;;;;;6.00;4.20;;;;;;;7.85;41.51;101906.42;106947;1263;25392;-68
2023/11/30 07:54:29;;;;;;;6.00;4.30;;;;;;;7.88;40.95;101908.36;106979;1259;25382;-68
2023/11/30 07:56:56;;;;;;;5.60;4.60;;;;;;;7.91;40.73;101909.94;107107;1254;25357;-68
2023/11/30 07:59:23;;;;;;;5.40;4.20;;;;;;;7.95;40.60;101919.30;107115;1257;25458;-68
2023/11/30 08:01:50;;;;;;;6.60;4.70;;;;;;;7.98;40.27;101921.22;107117;1251;25459;-68
2023/11/30 08:04:17;;;;;;;6.80;4.40;;;;;;;7.97;40.26;101922.95;106345;1251;1003285;-68
2023/11/30 08:06:46;;;;;;;6.70;4.60;;;;;;;7.97;40.37;101926.07;107134;1258;25344;-68
2023/11/30 08:09:13;;;;;;;5.90;4.60;;;;;;;7.98;40.64;101927.11;106347;1253;1003397;-68
2023/11/30 08:11:40;;;;;;;5.30;4.60;;;;;;;8.01;40.52;101923.48;106403;1254;1002838;-67
2023/11/30 08:14:08;;;;;;;6.50;4.60;;;;;;;8.02;40.15;101927.48;106908;1259;25357;-68
2023/11/30 08:16:35;;;;;;;5.70;4.50;;;;;;;8.05;40.10;101928.18;106870;1267;22546;-68
2023/11/30 08:19:05;;;;;;;6.10;4.50;;;;;;;8.07;40.13;101924.06;107136;1254;25353;-68
2023/11/30 08:21:33;;;;;;;6.80;4.90;;;;;;;8.10;40.00;101923.73;107192;1255;25453;-67
2023/11/30 08:24:00;;;;;;;5.80;4.50;;;;;;;8.11;39.91;101926.67;107140;1254;25433;-67
2023/11/30 08:26:27;;;;;;;6.60;4.70;;;;;;;8.10;39.51;101924.08;107122;1251;25521;-67
2023/11/30 08:28:54;;;;;;;7.50;4.40;;;;;;;8.12;39.77;101919.44;106463;1253;1004878;-68
2023/11/30 08:31:21;;;;;;;5.80;4.50;;;;;;;8.15;39.58;101918.93;107094;1256;25368;-68
2023/11/30 08:33:48;;;;;;;5.80;4.70;;;;;;;8.16;39.39;101922.22;106327;1269;1003122;-67
2023/11/30 08:36:15;;;;;;;6.00;4.30;;;;;;;8.18;39.50;101924.83;106970;1259;25365;-68
2023/11/30 08:38:43;;;;;;;5.50;4.50;;;;;;;8.20;39.45;101920.86;107196;1253;25462;-67
2023/11/30 08:41:10;;;;;;;5.60;4.20;;;;;;;8.25;39.28;101919.52;106382;1254;1003556;-68
2023/11/30 08:43:36;;;;;;;6.60;4.70;;;;;;;8.31;39.04;101918.20;106329;1257;1002864;-69
2023/11/30 08:46:04;;;;;;;6.00;4.10;;;;;;;8.38;38.73;101913.91;106172;1267;1002438;-68
2023/11/30 08:48:31;;;;;;;5.40;3.80;;;;;;;8.45;38.49;101912.39;106427;1254;1002810;-67
2023/11/30 08:50:59;;;;;;;5.40;3.70;;;;;;;8.50;38.02;101906.71;107099;1250;25397;-67
2023/11/30 08:53:26;;;;;;;5.10;3.80;;;;;;;8.55;38.22;101906.22;106245;1273;1003532;-68
2023/11/30 08:55:53;;;;;;;3.70;3.30;;;;;;;8.62;38.01;101909.36;107149;1254;25347;-67
2023/11/30 08:58:20;;;;;;;4.70;3.60;;;;;;;8.67;37.88;101903.51;107131;1270;25372;-67
2023/11/30 09:00:47;;;;;;;5.00;3.80;;;;;;;8.72;37.77;101899.20;106942;1269;25395;-68
2023/11/30 09:03:14;;;;;;;5.10;3.80;;;;;;;8.76;37.50;101895.41;106305;1256;1003585;-67
2023/11/30 09:05:48;;;;;;;4.60;3.40;;;;;;;8.78;37.70;101889.88;107166;1253;25379;-67
2023/11/30 09:08:15;;;;;;;4.70;3.50;;;;;;;8.84;38.03;101888.36;107221;1257;25462;-67
2023/11/30 09:10:42;;;;;;;5.40;3.40;;;;;;;8.90;37.78;101892.17;107094;1267;25365;-67
2023/11/30 09:13:09;;;;;;;4.60;3.60;;;;;;;8.97;37.43;101905.70;106484;1253;1002690;-68
2023/11/30 09:15:36;;;;;;;5.60;3.20;;;;;;;9.03;37.29;101904.33;107311;1267;22626;-69
2023/11/30 09:18:04;;;;;;;4.00;3.10;;;;;;;9.11;37.30;101907.98;106620;1254;1003089;-71
2023/11/30 09:20:31;;;;;;;4.90;3.00;;;;;;;9.18;37.27;101905.57;107216;1264;24192;-71
2023/11/30 09:22:58;;;;;;;4.50;3.30;;;;;;;9.22;37.59;101900.73;106183;1254;1016285;-71
2023/11/30 09:25:25;;;;;;;3.60;3.20;;;;;;;9.26;37.50;101893.48;106305;1262;1003683;-70
2023/11/30 09:27:52;;;;;;;4.70;3.40;;;;;;;9.28;37.43;101897.81;106923;1259;25341;-71
2023/11/30 09:30:19;;;;;;;4.20;3.10;;;;;;;9.30;37.40;101893.14;106371;1263;1002464;-72
2023/11/30 09:32:47;;;;;;;4.10;2.90;;;;;;;9.33;37.73;101892.45;107043;1257;25356;-71
2023/11/30 09:35:14;;;;;;;4.00;3.10;;;;;;;9.35;37.64;101887.95;107080;1254;25434;-71
2023/11/30 09:37:42;;;;;;;5.10;3.20;;;;;;;9.36;37.65;101885.70;107139;1253;25360;-71
2023/11/30 09:40:10;;;;;;;4.80;3.50;;;;;;;9.39;37.92;101892.11;106304;1257;1003031;-71
2023/11/30 09:42:37;;;;;;;4.30;3.40;;;;;;;9.42;38.13;101892.11;107411;1266;25450;-70
2023/11/30 09:45:08;;;;;;;3.80;3.10;;;;;;;9.45;38.50;101894.19;107676;1257;25365;-70
2023/11/30 09:47:36;;;;;;;4.00;3.30;;;;;;;9.47;38.24;101889.88;106347;1277;1003103;-70
2023/11/30 09:50:04;;;;;;;5.20;3.20;;;;;;;9.48;37.58;101882.07;107094;1260;23167;-71
2023/11/30 09:52:35;;;;;;;3.90;3.10;;;;;;;9.49;37.35;101874.45;106921;1270;22530;-70
2023/11/30 09:55:03;;;;;;;3.90;3.00;;;;;;;9.49;37.33;101870.98;106965;1254;24300;-70
2023/11/30 09:57:30;;;;;;;3.80;2.90;;;;;;;9.48;37.31;101867.86;106172;1270;1003502;-69
2023/11/30 09:59:58;;;;;;;3.00;2.50;;;;;;;9.50;37.67;101868.21;107178;1260;24215;-72
2023/11/30 10:02:27;;;;;;;6.30;2.80;;;;;;;9.50;37.62;101874.46;106896;1259;24308;-72
2023/11/30 10:04:54;;;;;;;3.30;2.50;;;;;;;9.52;37.58;101872.72;106213;1270;1002788;-72
2023/11/30 10:07:21;;;;;;;4.60;2.80;;;;;;;9.54;37.39;101873.92;106239;1268;1002427;-72
2023/11/30 10:09:48;;;;;;;5.60;2.70;;;;;;;9.56;37.71;101872.72;106762;1269;25493;-71
2023/11/30 10:12:19;;;;;;;3.90;2.60;;;;;;;9.60;37.62;101872.02;107137;1259;22755;-70
2023/11/30 10:14:46;;;;;;;3.50;2.90;;;;;;;9.63;37.50;101870.64;107046;1270;25490;-71
2023/11/30 10:17:13;;;;;;;4.60;2.90;;;;;;;9.64;37.45;101866.14;106777;1260;25539;-71
2023/11/30 10:19:41;;;;;;;4.40;3.00;;;;;;;9.63;37.64;101859.90;107043;1270;25566;-73
2023/11/30 10:22:08;;;;;;;3.90;2.90;;;;;;;9.64;38.03;101857.82;107168;1259;24479;-71
2023/11/30 10:24:35;;;;;;;5.10;3.60;;;;;;;9.65;38.47;101851.59;107281;1260;25398;-71
2023/11/30 10:27:03;;;;;;;3.60;2.80;;;;;;;9.67;38.43;101843.97;107247;1254;22645;-72
2023/11/30 10:29:30;;;;;;;3.80;2.80;;;;;;;9.69;38.35;101843.96;107460;1263;24249;-70
2023/11/30 10:31:59;;;;;;;5.20;3.80;;;;;;;9.71;38.64;101847.43;107193;1264;24205;-70
2023/11/30 10:34:35;;;;;;;4.70;3.20;;;;;;;9.74;38.88;101851.58;107373;1269;22559;-71
2023/11/30 10:37:02;;;;;;;6.60;3.10;;;;;;;9.77;38.48;101853.13;106794;1272;22530;-71
2023/11/30 10:39:33;;;;;;;3.30;2.20;;;;;;;9.80;38.24;101850.53;106951;1267;24183;-72
2023/11/30 10:42:00;;;;;;;2.90;2.60;;;;;;;9.83;37.99;101850.35;107453;1253;22513;-70
2023/11/30 10:44:28;;;;;;;4.20;3.20;;;;;;;9.85;38.28;101852.08;107401;1260;25379;-69
2023/11/30 10:46:56;;;;;;;3.30;2.70;;;;;;;9.87;38.32;101852.94;106951;1266;24958;-69
2023/11/30 10:49:25;;;;;;;4.00;3.20;;;;;;;9.90;38.55;101854.16;106288;1273;1002840;-72
2023/11/30 10:51:57;;;;;;;3.80;2.70;;;;;;;9.94;38.20;101852.58;107224;1273;25107;-71
2023/11/30 10:54:34;;;;;;;2.80;2.50;;;;;;;9.99;38.55;101857.42;107026;1254;25446;-70
2023/11/30 10:57:02;;;;;;;3.10;2.60;;;;;;;10.06;38.59;101858.63;107258;1269;25612;-69
2023/11/30 10:59:30;;;;;;;4.50;3.20;;;;;;;10.12;38.54;101865.93;106864;1260;25383;-68
2023/11/30 11:01:58;;;;;;;4.10;2.80;;;;;;;10.18;38.32;101870.79;107365;1256;23748;-70
2023/11/30 11:04:26;;;;;;;4.30;2.80;;;;;;;10.25;38.15;101873.88;107291;1266;25579;-70
2023/11/30 11:07:05;;;;;;;3.30;2.70;;;;;;;10.34;38.58;101875.92;107222;1260;25347;-70
2023/11/30 11:09:53;;;;;;;3.70;2.90;;;;;;;10.39;38.61;101871.75;107440;1257;25289;-71
2023/11/30 11:12:25;;;;;;;4.30;3.10;;;;;;;10.42;39.29;101867.06;106953;1256;22560;-70
2023/11/30 11:15:08;;;;;;;3.60;2.80;;;;;;;10.46;38.93;101862.53;106880;1257;25453;-71
2023/11/30 11:17:51;;;;;;;4.70;3.10;;;;;;;10.51;38.82;101871.02;107049;1273;22527;-70